sensor_id;sensor_type;location;lat;lon;timestamp;P1;durP1;ratioP1;P2;durP2;ratioP2
19905;SDS011;10115;50.906;4.438;2022-11-20T00:01:49;16.20;;;10.30;;
19905;SDS011;10115;50.906;4.438;2022-11-20T00:04:15;17.43;;;10.17;;
19905;SDS011;10115;50.906;4.438;2022-11-20T00:06:40;24.53;;;11.07;;
19905;SDS011;10115;50.906;4.438;2022-11-20T00:09:06;14.57;;;9.73;;
19905;SDS011;10115;50.906;4.438;2022-11-20T00:11:34;13.50;;;10.07;;
19905;SDS011;10115;50.906;4.438;2022-11-20T00:14:00;16.67;;;11.67;;
19905;SDS011;10115;50.906;4.438;2022-11-20T00:16:27;16.90;;;10.10;;
19905;SDS011;10115;50.906;4.438;2022-11-20T00:18:55;12.93;;;9.53;;
19905;SDS011;10115;50.906;4.438;2022-11-20T00:21:22;16.93;;;10.90;;
19905;SDS011;10115;50.906;4.438;2022-11-20T00:23:49;18.03;;;10.80;;
19905;SDS011;10115;50.906;4.438;2022-11-20T00:26:17;21.60;;;12.43;;
19905;SDS011;10115;50.906;4.438;2022-11-20T00:28:49;19.20;;;10.83;;
19905;SDS011;10115;50.906;4.438;2022-11-20T00:31:16;17.87;;;11.70;;
19905;SDS011;10115;50.906;4.438;2022-11-20T00:33:42;13.83;;;10.47;;
19905;SDS011;10115;50.906;4.438;2022-11-20T00:36:09;19.10;;;12.67;;
19905;SDS011;10115;50.906;4.438;2022-11-20T00:38:40;15.90;;;10.10;;
19905;SDS011;10115;50.906;4.438;2022-11-20T00:41:07;16.63;;;11.40;;
19905;SDS011;10115;50.906;4.438;2022-11-20T00:43:34;16.07;;;11.27;;
19905;SDS011;10115;50.906;4.438;2022-11-20T00:46:05;19.53;;;12.73;;
19905;SDS011;10115;50.906;4.438;2022-11-20T00:48:32;15.37;;;10.03;;
19905;SDS011;10115;50.906;4.438;2022-11-20T00:50:58;19.87;;;12.10;;
19905;SDS011;10115;50.906;4.438;2022-11-20T00:53:24;14.40;;;10.43;;
19905;SDS011;10115;50.906;4.438;2022-11-20T00:55:57;14.03;;;10.47;;
19905;SDS011;10115;50.906;4.438;2022-11-20T00:58:28;20.10;;;11.90;;
19905;SDS011;10115;50.906;4.438;2022-11-20T01:01:03;12.90;;;11.20;;
19905;SDS011;10115;50.906;4.438;2022-11-20T01:03:34;14.30;;;10.30;;
19905;SDS011;10115;50.906;4.438;2022-11-20T01:06:02;10.63;;;9.10;;
19905;SDS011;10115;50.906;4.438;2022-11-20T01:08:29;12.57;;;10.17;;
19905;SDS011;10115;50.906;4.438;2022-11-20T01:11:00;18.40;;;11.40;;
19905;SDS011;10115;50.906;4.438;2022-11-20T01:13:31;15.97;;;11.37;;
19905;SDS011;10115;50.906;4.438;2022-11-20T01:16:16;21.00;;;11.67;;
19905;SDS011;10115;50.906;4.438;2022-11-20T01:18:48;15.93;;;11.23;;
19905;SDS011;10115;50.906;4.438;2022-11-20T01:21:19;15.10;;;11.13;;
19905;SDS011;10115;50.906;4.438;2022-11-20T01:23:47;16.13;;;11.30;;
19905;SDS011;10115;50.906;4.438;2022-11-20T01:26:15;22.47;;;11.87;;
19905;SDS011;10115;50.906;4.438;2022-11-20T01:28:42;20.93;;;12.47;;
19905;SDS011;10115;50.906;4.438;2022-11-20T01:31:19;18.47;;;11.47;;
19905;SDS011;10115;50.906;4.438;2022-11-20T01:33:48;18.27;;;12.97;;
19905;SDS011;10115;50.906;4.438;2022-11-20T01:36:15;25.33;;;15.07;;
19905;SDS011;10115;50.906;4.438;2022-11-20T01:38:43;16.37;;;13.07;;
19905;SDS011;10115;50.906;4.438;2022-11-20T01:41:09;22.07;;;13.40;;
19905;SDS011;10115;50.906;4.438;2022-11-20T01:43:57;20.77;;;12.73;;
19905;SDS011;10115;50.906;4.438;2022-11-20T01:46:23;21.63;;;13.97;;
19905;SDS011;10115;50.906;4.438;2022-11-20T01:51:22;24.57;;;13.90;;
19905;SDS011;10115;50.906;4.438;2022-11-20T01:53:50;22.73;;;13.90;;
19905;SDS011;10115;50.906;4.438;2022-11-20T01:56:19;24.37;;;14.00;;
19905;SDS011;10115;50.906;4.438;2022-11-20T01:58:48;28.23;;;13.87;;
19905;SDS011;10115;50.906;4.438;2022-11-20T02:01:20;21.80;;;13.43;;
19905;SDS011;10115;50.906;4.438;2022-11-20T02:03:46;26.47;;;12.93;;
19905;SDS011;10115;50.906;4.438;2022-11-20T02:08:48;19.90;;;13.57;;
19905;SDS011;10115;50.906;4.438;2022-11-20T02:11:15;18.17;;;13.17;;
19905;SDS011;10115;50.906;4.438;2022-11-20T02:13:41;18.23;;;12.03;;
19905;SDS011;10115;50.906;4.438;2022-11-20T02:16:14;16.37;;;12.60;;
19905;SDS011;10115;50.906;4.438;2022-11-20T02:18:40;15.90;;;12.23;;
19905;SDS011;10115;50.906;4.438;2022-11-20T02:21:17;21.77;;;12.90;;
19905;SDS011;10115;50.906;4.438;2022-11-20T02:26:28;13.50;;;10.67;;
19905;SDS011;10115;50.906;4.438;2022-11-20T02:28:56;18.47;;;13.33;;
19905;SDS011;10115;50.906;4.438;2022-11-20T02:31:24;28.63;;;14.37;;
19905;SDS011;10115;50.906;4.438;2022-11-20T02:33:59;32.60;;;13.80;;
19905;SDS011;10115;50.906;4.438;2022-11-20T02:36:26;22.43;;;13.03;;
19905;SDS011;10115;50.906;4.438;2022-11-20T02:38:53;30.30;;;14.07;;
19905;SDS011;10115;50.906;4.438;2022-11-20T02:41:19;20.47;;;13.17;;
19905;SDS011;10115;50.906;4.438;2022-11-20T02:43:45;23.30;;;13.63;;
19905;SDS011;10115;50.906;4.438;2022-11-20T02:46:11;24.07;;;14.47;;
19905;SDS011;10115;50.906;4.438;2022-11-20T02:48:36;15.83;;;11.97;;
19905;SDS011;10115;50.906;4.438;2022-11-20T02:51:02;23.43;;;14.70;;
19905;SDS011;10115;50.906;4.438;2022-11-20T02:53:28;27.33;;;15.63;;
19905;SDS011;10115;50.906;4.438;2022-11-20T02:55:54;23.80;;;14.70;;
19905;SDS011;10115;50.906;4.438;2022-11-20T02:58:19;20.17;;;12.00;;
19905;SDS011;10115;50.906;4.438;2022-11-20T03:00:45;19.87;;;11.83;;
19905;SDS011;10115;50.906;4.438;2022-11-20T03:03:11;23.00;;;12.20;;
19905;SDS011;10115;50.906;4.438;2022-11-20T03:05:36;26.63;;;12.80;;
19905;SDS011;10115;50.906;4.438;2022-11-20T03:08:02;28.93;;;14.63;;
19905;SDS011;10115;50.906;4.438;2022-11-20T03:10:27;22.30;;;12.57;;
19905;SDS011;10115;50.906;4.438;2022-11-20T03:12:54;12.80;;;9.93;;
19905;SDS011;10115;50.906;4.438;2022-11-20T03:15:20;15.43;;;10.43;;
19905;SDS011;10115;50.906;4.438;2022-11-20T03:17:49;13.57;;;8.63;;
19905;SDS011;10115;50.906;4.438;2022-11-20T03:20:19;16.63;;;10.47;;
19905;SDS011;10115;50.906;4.438;2022-11-20T03:22:45;15.77;;;10.53;;
19905;SDS011;10115;50.906;4.438;2022-11-20T03:25:10;12.33;;;8.53;;
19905;SDS011;10115;50.906;4.438;2022-11-20T03:27:36;12.70;;;9.87;;
19905;SDS011;10115;50.906;4.438;2022-11-20T03:30:02;14.93;;;9.83;;
19905;SDS011;10115;50.906;4.438;2022-11-20T03:32:29;14.80;;;10.27;;
19905;SDS011;10115;50.906;4.438;2022-11-20T03:34:54;13.47;;;9.53;;
19905;SDS011;10115;50.906;4.438;2022-11-20T03:37:20;9.93;;;8.90;;
19905;SDS011;10115;50.906;4.438;2022-11-20T03:39:46;11.73;;;9.60;;
19905;SDS011;10115;50.906;4.438;2022-11-20T03:42:11;10.83;;;9.10;;
19905;SDS011;10115;50.906;4.438;2022-11-20T03:44:55;14.10;;;9.70;;
19905;SDS011;10115;50.906;4.438;2022-11-20T03:47:21;13.63;;;9.77;;
19905;SDS011;10115;50.906;4.438;2022-11-20T03:49:46;16.43;;;10.00;;
19905;SDS011;10115;50.906;4.438;2022-11-20T03:52:12;22.17;;;10.63;;
19905;SDS011;10115;50.906;4.438;2022-11-20T03:54:38;15.43;;;9.63;;
19905;SDS011;10115;50.906;4.438;2022-11-20T03:57:03;13.73;;;10.20;;
19905;SDS011;10115;50.906;4.438;2022-11-20T03:59:29;19.33;;;11.97;;
19905;SDS011;10115;50.906;4.438;2022-11-20T04:01:54;12.80;;;10.00;;
19905;SDS011;10115;50.906;4.438;2022-11-20T04:04:20;12.40;;;9.00;;
19905;SDS011;10115;50.906;4.438;2022-11-20T04:06:46;18.10;;;12.17;;
19905;SDS011;10115;50.906;4.438;2022-11-20T04:09:12;14.83;;;10.03;;
19905;SDS011;10115;50.906;4.438;2022-11-20T04:11:39;15.10;;;10.57;;
19905;SDS011;10115;50.906;4.438;2022-11-20T04:14:06;19.67;;;10.90;;
19905;SDS011;10115;50.906;4.438;2022-11-20T04:16:37;13.73;;;9.73;;
19905;SDS011;10115;50.906;4.438;2022-11-20T04:19:04;16.23;;;9.67;;
19905;SDS011;10115;50.906;4.438;2022-11-20T04:21:31;14.97;;;10.00;;
19905;SDS011;10115;50.906;4.438;2022-11-20T04:23:57;16.77;;;11.20;;
19905;SDS011;10115;50.906;4.438;2022-11-20T04:26:24;16.80;;;9.57;;
19905;SDS011;10115;50.906;4.438;2022-11-20T04:28:50;13.57;;;9.03;;
19905;SDS011;10115;50.906;4.438;2022-11-20T04:31:20;16.23;;;9.83;;
19905;SDS011;10115;50.906;4.438;2022-11-20T04:33:47;12.33;;;10.40;;
19905;SDS011;10115;50.906;4.438;2022-11-20T04:36:14;13.70;;;9.67;;
19905;SDS011;10115;50.906;4.438;2022-11-20T04:38:44;14.33;;;9.87;;
19905;SDS011;10115;50.906;4.438;2022-11-20T04:41:20;14.10;;;9.33;;
19905;SDS011;10115;50.906;4.438;2022-11-20T04:43:47;16.23;;;10.07;;
19905;SDS011;10115;50.906;4.438;2022-11-20T04:46:17;14.70;;;9.63;;
19905;SDS011;10115;50.906;4.438;2022-11-20T04:48:44;11.60;;;9.17;;
19905;SDS011;10115;50.906;4.438;2022-11-20T04:51:10;14.47;;;9.97;;
19905;SDS011;10115;50.906;4.438;2022-11-20T04:53:37;12.43;;;9.03;;
19905;SDS011;10115;50.906;4.438;2022-11-20T04:56:03;15.17;;;9.47;;
19905;SDS011;10115;50.906;4.438;2022-11-20T04:58:31;13.83;;;10.30;;
19905;SDS011;10115;50.906;4.438;2022-11-20T05:01:01;16.87;;;9.57;;
19905;SDS011;10115;50.906;4.438;2022-11-20T05:03:27;18.67;;;11.47;;
19905;SDS011;10115;50.906;4.438;2022-11-20T05:05:53;15.00;;;10.57;;
19905;SDS011;10115;50.906;4.438;2022-11-20T05:08:19;15.87;;;10.67;;
19905;SDS011;10115;50.906;4.438;2022-11-20T05:10:44;12.47;;;9.83;;
19905;SDS011;10115;50.906;4.438;2022-11-20T05:13:10;13.27;;;9.20;;
19905;SDS011;10115;50.906;4.438;2022-11-20T05:15:35;22.00;;;10.50;;
19905;SDS011;10115;50.906;4.438;2022-11-20T05:18:01;16.63;;;10.60;;
19905;SDS011;10115;50.906;4.438;2022-11-20T05:20:27;14.37;;;10.27;;
19905;SDS011;10115;50.906;4.438;2022-11-20T05:22:55;18.63;;;10.90;;
19905;SDS011;10115;50.906;4.438;2022-11-20T05:25:22;17.47;;;10.37;;
19905;SDS011;10115;50.906;4.438;2022-11-20T05:27:48;21.53;;;12.03;;
19905;SDS011;10115;50.906;4.438;2022-11-20T05:30:13;21.40;;;10.90;;
19905;SDS011;10115;50.906;4.438;2022-11-20T05:32:39;17.23;;;10.33;;
19905;SDS011;10115;50.906;4.438;2022-11-20T05:35:05;22.47;;;11.83;;
19905;SDS011;10115;50.906;4.438;2022-11-20T05:37:31;17.47;;;11.50;;
19905;SDS011;10115;50.906;4.438;2022-11-20T05:39:57;15.40;;;10.37;;
19905;SDS011;10115;50.906;4.438;2022-11-20T05:42:22;19.40;;;10.13;;
19905;SDS011;10115;50.906;4.438;2022-11-20T05:45:00;18.07;;;12.27;;
19905;SDS011;10115;50.906;4.438;2022-11-20T05:47:28;18.70;;;10.50;;
19905;SDS011;10115;50.906;4.438;2022-11-20T05:49:57;21.37;;;11.17;;
19905;SDS011;10115;50.906;4.438;2022-11-20T05:52:23;25.50;;;12.13;;
19905;SDS011;10115;50.906;4.438;2022-11-20T05:54:49;21.90;;;12.47;;
19905;SDS011;10115;50.906;4.438;2022-11-20T05:57:14;18.37;;;11.93;;
19905;SDS011;10115;50.906;4.438;2022-11-20T05:59:41;29.60;;;17.17;;
19905;SDS011;10115;50.906;4.438;2022-11-20T06:02:07;21.30;;;12.43;;
19905;SDS011;10115;50.906;4.438;2022-11-20T06:04:32;21.67;;;11.43;;
19905;SDS011;10115;50.906;4.438;2022-11-20T06:06:58;21.80;;;12.27;;
19905;SDS011;10115;50.906;4.438;2022-11-20T06:09:24;16.13;;;10.53;;
19905;SDS011;10115;50.906;4.438;2022-11-20T06:11:49;19.67;;;12.10;;
19905;SDS011;10115;50.906;4.438;2022-11-20T06:14:15;17.07;;;11.63;;
19905;SDS011;10115;50.906;4.438;2022-11-20T06:16:40;16.73;;;11.63;;
19905;SDS011;10115;50.906;4.438;2022-11-20T06:19:06;18.77;;;10.70;;
19905;SDS011;10115;50.906;4.438;2022-11-20T06:21:32;22.90;;;12.00;;
19905;SDS011;10115;50.906;4.438;2022-11-20T06:23:57;21.13;;;10.57;;
19905;SDS011;10115;50.906;4.438;2022-11-20T06:26:24;19.37;;;12.43;;
19905;SDS011;10115;50.906;4.438;2022-11-20T06:28:52;16.43;;;10.63;;
19905;SDS011;10115;50.906;4.438;2022-11-20T06:31:19;14.47;;;10.33;;
19905;SDS011;10115;50.906;4.438;2022-11-20T06:33:47;25.53;;;11.97;;
19905;SDS011;10115;50.906;4.438;2022-11-20T06:36:14;18.00;;;9.37;;
19905;SDS011;10115;50.906;4.438;2022-11-20T06:38:41;20.57;;;13.00;;
19905;SDS011;10115;50.906;4.438;2022-11-20T06:41:12;19.60;;;11.27;;
19905;SDS011;10115;50.906;4.438;2022-11-20T06:43:40;24.40;;;10.70;;
19905;SDS011;10115;50.906;4.438;2022-11-20T06:46:06;23.63;;;11.33;;
19905;SDS011;10115;50.906;4.438;2022-11-20T06:48:31;26.47;;;13.83;;
19905;SDS011;10115;50.906;4.438;2022-11-20T06:50:57;22.17;;;13.30;;
19905;SDS011;10115;50.906;4.438;2022-11-20T06:53:24;24.33;;;13.03;;
19905;SDS011;10115;50.906;4.438;2022-11-20T06:55:50;29.77;;;15.03;;
19905;SDS011;10115;50.906;4.438;2022-11-20T06:58:16;26.70;;;11.43;;
19905;SDS011;10115;50.906;4.438;2022-11-20T07:00:43;24.87;;;12.20;;
19905;SDS011;10115;50.906;4.438;2022-11-20T07:03:10;23.33;;;13.70;;
19905;SDS011;10115;50.906;4.438;2022-11-20T07:05:37;25.87;;;13.60;;
19905;SDS011;10115;50.906;4.438;2022-11-20T07:08:03;20.47;;;12.87;;
19905;SDS011;10115;50.906;4.438;2022-11-20T07:10:29;26.77;;;13.73;;
19905;SDS011;10115;50.906;4.438;2022-11-20T07:12:56;27.00;;;15.23;;
19905;SDS011;10115;50.906;4.438;2022-11-20T07:15:22;27.03;;;14.20;;
19905;SDS011;10115;50.906;4.438;2022-11-20T07:17:49;20.63;;;11.43;;
19905;SDS011;10115;50.906;4.438;2022-11-20T07:20:15;17.97;;;12.37;;
19905;SDS011;10115;50.906;4.438;2022-11-20T07:22:41;23.10;;;13.60;;
19905;SDS011;10115;50.906;4.438;2022-11-20T07:25:08;33.27;;;14.33;;
19905;SDS011;10115;50.906;4.438;2022-11-20T07:27:34;30.07;;;14.10;;
19905;SDS011;10115;50.906;4.438;2022-11-20T07:30:00;37.17;;;14.03;;
19905;SDS011;10115;50.906;4.438;2022-11-20T07:32:26;32.63;;;14.70;;
19905;SDS011;10115;50.906;4.438;2022-11-20T07:34:52;29.10;;;14.10;;
19905;SDS011;10115;50.906;4.438;2022-11-20T07:37:18;29.97;;;13.00;;
19905;SDS011;10115;50.906;4.438;2022-11-20T07:39:43;29.80;;;14.53;;
19905;SDS011;10115;50.906;4.438;2022-11-20T07:42:09;44.23;;;14.93;;
19905;SDS011;10115;50.906;4.438;2022-11-20T07:44:37;25.60;;;12.53;;
19905;SDS011;10115;50.906;4.438;2022-11-20T07:47:02;34.00;;;13.87;;
19905;SDS011;10115;50.906;4.438;2022-11-20T07:49:29;23.30;;;14.03;;
19905;SDS011;10115;50.906;4.438;2022-11-20T07:51:54;31.77;;;13.90;;
19905;SDS011;10115;50.906;4.438;2022-11-20T07:54:20;32.23;;;14.43;;
19905;SDS011;10115;50.906;4.438;2022-11-20T07:56:47;31.53;;;12.90;;
19905;SDS011;10115;50.906;4.438;2022-11-20T07:59:15;27.10;;;15.90;;
19905;SDS011;10115;50.906;4.438;2022-11-20T08:01:42;27.47;;;14.80;;
19905;SDS011;10115;50.906;4.438;2022-11-20T08:04:08;33.77;;;13.23;;
19905;SDS011;10115;50.906;4.438;2022-11-20T08:06:35;33.80;;;14.77;;
19905;SDS011;10115;50.906;4.438;2022-11-20T08:09:01;32.07;;;15.50;;
19905;SDS011;10115;50.906;4.438;2022-11-20T08:11:27;29.63;;;12.67;;
19905;SDS011;10115;50.906;4.438;2022-11-20T08:14:11;29.67;;;12.20;;
19905;SDS011;10115;50.906;4.438;2022-11-20T08:16:37;23.37;;;13.77;;
19905;SDS011;10115;50.906;4.438;2022-11-20T08:19:13;19.77;;;11.10;;
19905;SDS011;10115;50.906;4.438;2022-11-20T08:21:40;32.30;;;15.93;;
19905;SDS011;10115;50.906;4.438;2022-11-20T08:24:06;27.90;;;12.73;;
19905;SDS011;10115;50.906;4.438;2022-11-20T08:26:33;29.93;;;14.67;;
19905;SDS011;10115;50.906;4.438;2022-11-20T08:28:59;26.43;;;13.67;;
19905;SDS011;10115;50.906;4.438;2022-11-20T08:31:25;29.33;;;13.00;;
19905;SDS011;10115;50.906;4.438;2022-11-20T08:33:52;33.17;;;11.43;;
19905;SDS011;10115;50.906;4.438;2022-11-20T08:36:18;30.83;;;16.17;;
19905;SDS011;10115;50.906;4.438;2022-11-20T08:38:48;32.83;;;16.83;;
19905;SDS011;10115;50.906;4.438;2022-11-20T08:41:18;23.57;;;11.93;;
19905;SDS011;10115;50.906;4.438;2022-11-20T08:43:57;34.70;;;14.33;;
19905;SDS011;10115;50.906;4.438;2022-11-20T08:46:24;25.20;;;11.33;;
19905;SDS011;10115;50.906;4.438;2022-11-20T08:48:52;25.03;;;11.37;;
19905;SDS011;10115;50.906;4.438;2022-11-20T08:51:18;20.73;;;11.70;;
19905;SDS011;10115;50.906;4.438;2022-11-20T08:53:45;35.43;;;14.83;;
19905;SDS011;10115;50.906;4.438;2022-11-20T08:56:11;29.73;;;15.03;;
19905;SDS011;10115;50.906;4.438;2022-11-20T08:58:37;22.97;;;12.23;;
19905;SDS011;10115;50.906;4.438;2022-11-20T09:01:04;26.60;;;11.20;;
19905;SDS011;10115;50.906;4.438;2022-11-20T09:03:29;29.73;;;13.23;;
19905;SDS011;10115;50.906;4.438;2022-11-20T09:06:13;37.80;;;12.90;;
19905;SDS011;10115;50.906;4.438;2022-11-20T09:08:39;16.97;;;10.43;;
19905;SDS011;10115;50.906;4.438;2022-11-20T09:11:05;24.20;;;11.93;;
19905;SDS011;10115;50.906;4.438;2022-11-20T09:13:31;37.57;;;14.63;;
19905;SDS011;10115;50.906;4.438;2022-11-20T09:16:00;27.00;;;14.03;;
19905;SDS011;10115;50.906;4.438;2022-11-20T09:18:33;31.00;;;12.73;;
19905;SDS011;10115;50.906;4.438;2022-11-20T09:21:02;24.50;;;12.53;;
19905;SDS011;10115;50.906;4.438;2022-11-20T09:23:34;24.43;;;13.60;;
19905;SDS011;10115;50.906;4.438;2022-11-20T09:26:04;30.53;;;14.00;;
19905;SDS011;10115;50.906;4.438;2022-11-20T09:28:30;21.90;;;12.07;;
19905;SDS011;10115;50.906;4.438;2022-11-20T09:30:57;28.80;;;12.87;;
19905;SDS011;10115;50.906;4.438;2022-11-20T09:33:23;30.23;;;13.17;;
19905;SDS011;10115;50.906;4.438;2022-11-20T09:35:49;25.43;;;12.67;;
19905;SDS011;10115;50.906;4.438;2022-11-20T09:38:15;22.80;;;13.33;;
19905;SDS011;10115;50.906;4.438;2022-11-20T09:40:43;23.70;;;12.53;;
19905;SDS011;10115;50.906;4.438;2022-11-20T09:46:03;15.97;;;12.03;;
19905;SDS011;10115;50.906;4.438;2022-11-20T09:51:21;23.13;;;12.70;;
19905;SDS011;10115;50.906;4.438;2022-11-20T09:54:26;19.90;;;11.20;;
19905;SDS011;10115;50.906;4.438;2022-11-20T09:57:02;19.90;;;9.53;;
19905;SDS011;10115;50.906;4.438;2022-11-20T09:59:44;17.77;;;10.90;;
19905;SDS011;10115;50.906;4.438;2022-11-20T10:04:55;18.93;;;10.23;;
19905;SDS011;10115;50.906;4.438;2022-11-20T10:07:31;19.27;;;10.23;;
19905;SDS011;10115;50.906;4.438;2022-11-20T10:10:16;19.83;;;9.93;;
19905;SDS011;10115;50.906;4.438;2022-11-20T10:15:50;19.40;;;10.90;;
19905;SDS011;10115;50.906;4.438;2022-11-20T10:21:16;16.97;;;10.17;;
19905;SDS011;10115;50.906;4.438;2022-11-20T10:26:44;17.40;;;10.30;;
19905;SDS011;10115;50.906;4.438;2022-11-20T10:29:25;14.20;;;8.47;;
19905;SDS011;10115;50.906;4.438;2022-11-20T10:32:07;12.27;;;7.97;;
19905;SDS011;10115;50.906;4.438;2022-11-20T10:37:26;22.80;;;10.47;;
19905;SDS011;10115;50.906;4.438;2022-11-20T10:39:57;13.37;;;8.20;;
19905;SDS011;10115;50.906;4.438;2022-11-20T10:42:44;13.50;;;7.23;;
19905;SDS011;10115;50.906;4.438;2022-11-20T10:47:47;12.10;;;8.00;;
19905;SDS011;10115;50.906;4.438;2022-11-20T10:50:14;12.83;;;7.97;;
19905;SDS011;10115;50.906;4.438;2022-11-20T10:55:33;14.70;;;7.43;;
19905;SDS011;10115;50.906;4.438;2022-11-20T10:58:10;6.37;;;5.80;;
19905;SDS011;10115;50.906;4.438;2022-11-20T11:00:39;14.43;;;6.60;;
19905;SDS011;10115;50.906;4.438;2022-11-20T11:03:14;9.40;;;5.93;;
19905;SDS011;10115;50.906;4.438;2022-11-20T11:05:59;5.73;;;4.70;;
19905;SDS011;10115;50.906;4.438;2022-11-20T11:08:35;4.70;;;4.40;;
19905;SDS011;10115;50.906;4.438;2022-11-20T11:14:07;7.80;;;5.60;;
19905;SDS011;10115;50.906;4.438;2022-11-20T11:16:34;7.87;;;6.13;;
19905;SDS011;10115;50.906;4.438;2022-11-20T11:19:33;4.17;;;3.80;;
19905;SDS011;10115;50.906;4.438;2022-11-20T11:21:56;5.23;;;4.73;;
19905;SDS011;10115;50.906;4.438;2022-11-20T11:24:25;5.00;;;4.50;;
19905;SDS011;10115;50.906;4.438;2022-11-20T11:27:03;4.37;;;3.93;;
19905;SDS011;10115;50.906;4.438;2022-11-20T11:29:36;5.30;;;4.30;;
19905;SDS011;10115;50.906;4.438;2022-11-20T11:32:12;5.10;;;4.60;;
19905;SDS011;10115;50.906;4.438;2022-11-20T11:34:39;7.83;;;4.60;;
19905;SDS011;10115;50.906;4.438;2022-11-20T11:37:10;3.93;;;3.63;;
19905;SDS011;10115;50.906;4.438;2022-11-20T11:39:41;4.07;;;3.73;;
19905;SDS011;10115;50.906;4.438;2022-11-20T11:42:10;10.60;;;3.77;;
19905;SDS011;10115;50.906;4.438;2022-11-20T11:44:45;4.97;;;4.50;;
19905;SDS011;10115;50.906;4.438;2022-11-20T11:47:31;4.47;;;4.03;;
19905;SDS011;10115;50.906;4.438;2022-11-20T11:53:21;5.20;;;4.73;;
19905;SDS011;10115;50.906;4.438;2022-11-20T11:55:25;3.67;;;3.47;;
19905;SDS011;10115;50.906;4.438;2022-11-20T11:57:54;4.00;;;3.70;;
19905;SDS011;10115;50.906;4.438;2022-11-20T12:00:31;7.33;;;4.03;;
19905;SDS011;10115;50.906;4.438;2022-11-20T12:03:11;3.43;;;3.13;;
19905;SDS011;10115;50.906;4.438;2022-11-20T12:05:51;3.50;;;3.30;;
19905;SDS011;10115;50.906;4.438;2022-11-20T12:08:23;4.40;;;4.00;;
19905;SDS011;10115;50.906;4.438;2022-11-20T12:15:59;3.67;;;3.47;;
19905;SDS011;10115;50.906;4.438;2022-11-20T12:18:27;3.47;;;3.20;;
19905;SDS011;10115;50.906;4.438;2022-11-20T12:32:09;5.40;;;4.27;;
19905;SDS011;10115;50.906;4.438;2022-11-20T12:35:00;4.60;;;3.40;;
19905;SDS011;10115;50.906;4.438;2022-11-20T12:37:57;6.47;;;4.10;;
19905;SDS011;10115;50.906;4.438;2022-11-20T12:40:47;4.57;;;4.13;;
19905;SDS011;10115;50.906;4.438;2022-11-20T12:43:32;5.27;;;4.87;;
19905;SDS011;10115;50.906;4.438;2022-11-20T12:46:48;3.93;;;3.53;;
19905;SDS011;10115;50.906;4.438;2022-11-20T12:49:38;9.87;;;3.87;;
19905;SDS011;10115;50.906;4.438;2022-11-20T12:55:03;4.50;;;4.10;;
19905;SDS011;10115;50.906;4.438;2022-11-20T13:00:24;7.07;;;4.20;;
19905;SDS011;10115;50.906;4.438;2022-11-20T13:08:24;4.10;;;3.80;;
19905;SDS011;10115;50.906;4.438;2022-11-20T13:15:58;4.13;;;3.77;;
19905;SDS011;10115;50.906;4.438;2022-11-20T13:18:34;3.80;;;3.50;;
19905;SDS011;10115;50.906;4.438;2022-11-20T13:21:17;4.07;;;3.63;;
19905;SDS011;10115;50.906;4.438;2022-11-20T13:23:45;3.77;;;3.53;;
19905;SDS011;10115;50.906;4.438;2022-11-20T13:26:19;4.23;;;3.93;;
19905;SDS011;10115;50.906;4.438;2022-11-20T13:28:47;4.17;;;3.80;;
19905;SDS011;10115;50.906;4.438;2022-11-20T13:31:32;4.00;;;3.70;;
19905;SDS011;10115;50.906;4.438;2022-11-20T13:34:00;6.30;;;4.00;;
19905;SDS011;10115;50.906;4.438;2022-11-20T13:36:29;4.20;;;3.83;;
19905;SDS011;10115;50.906;4.438;2022-11-20T13:38:57;4.20;;;3.93;;
19905;SDS011;10115;50.906;4.438;2022-11-20T13:46:48;4.00;;;3.70;;
19905;SDS011;10115;50.906;4.438;2022-11-20T13:49:18;4.00;;;3.70;;
19905;SDS011;10115;50.906;4.438;2022-11-20T14:00:27;3.07;;;2.90;;
19905;SDS011;10115;50.906;4.438;2022-11-20T14:03:01;3.27;;;3.10;;
19905;SDS011;10115;50.906;4.438;2022-11-20T14:05:31;3.30;;;3.10;;
19905;SDS011;10115;50.906;4.438;2022-11-20T14:08:27;3.03;;;2.93;;
19905;SDS011;10115;50.906;4.438;2022-11-20T14:11:21;2.77;;;2.57;;
19905;SDS011;10115;50.906;4.438;2022-11-20T14:16:23;4.63;;;3.87;;
19905;SDS011;10115;50.906;4.438;2022-11-20T14:18:50;5.07;;;3.33;;
19905;SDS011;10115;50.906;4.438;2022-11-20T14:21:27;3.13;;;2.93;;
19905;SDS011;10115;50.906;4.438;2022-11-20T14:24:09;2.80;;;2.70;;
19905;SDS011;10115;50.906;4.438;2022-11-20T14:26:37;3.23;;;3.13;;
19905;SDS011;10115;50.906;4.438;2022-11-20T14:29:12;4.07;;;3.77;;
19905;SDS011;10115;50.906;4.438;2022-11-20T14:31:39;2.80;;;2.70;;
19905;SDS011;10115;50.906;4.438;2022-11-20T14:34:12;8.03;;;3.53;;
19905;SDS011;10115;50.906;4.438;2022-11-20T14:36:44;2.63;;;2.53;;
19905;SDS011;10115;50.906;4.438;2022-11-20T14:39:11;3.53;;;2.83;;
19905;SDS011;10115;50.906;4.438;2022-11-20T14:41:51;2.70;;;2.60;;
19905;SDS011;10115;50.906;4.438;2022-11-20T14:44:23;3.33;;;3.13;;
19905;SDS011;10115;50.906;4.438;2022-11-20T14:46:52;3.53;;;3.33;;
19905;SDS011;10115;50.906;4.438;2022-11-20T14:49:20;3.33;;;3.10;;
19905;SDS011;10115;50.906;4.438;2022-11-20T14:51:46;3.30;;;3.10;;
19905;SDS011;10115;50.906;4.438;2022-11-20T14:54:15;3.97;;;3.77;;
19905;SDS011;10115;50.906;4.438;2022-11-20T14:56:53;4.17;;;3.87;;
19905;SDS011;10115;50.906;4.438;2022-11-20T14:59:24;3.53;;;3.33;;
19905;SDS011;10115;50.906;4.438;2022-11-20T15:01:54;3.47;;;3.27;;
19905;SDS011;10115;50.906;4.438;2022-11-20T15:04:47;3.10;;;2.90;;
19905;SDS011;10115;50.906;4.438;2022-11-20T15:07:27;2.93;;;2.83;;
19905;SDS011;10115;50.906;4.438;2022-11-20T15:12:31;3.90;;;3.70;;
19905;SDS011;10115;50.906;4.438;2022-11-20T15:14:58;4.27;;;3.00;;
19905;SDS011;10115;50.906;4.438;2022-11-20T15:17:26;2.60;;;2.50;;
19905;SDS011;10115;50.906;4.438;2022-11-20T15:19:52;8.50;;;3.90;;
19905;SDS011;10115;50.906;4.438;2022-11-20T15:22:18;5.00;;;4.63;;
19905;SDS011;10115;50.906;4.438;2022-11-20T15:24:44;3.53;;;3.33;;
19905;SDS011;10115;50.906;4.438;2022-11-20T15:27:10;5.57;;;5.07;;
19905;SDS011;10115;50.906;4.438;2022-11-20T15:29:36;6.10;;;3.80;;
19905;SDS011;10115;50.906;4.438;2022-11-20T15:32:02;4.53;;;4.13;;
19905;SDS011;10115;50.906;4.438;2022-11-20T15:34:28;8.63;;;4.87;;
19905;SDS011;10115;50.906;4.438;2022-11-20T15:36:54;3.77;;;3.57;;
19905;SDS011;10115;50.906;4.438;2022-11-20T15:39:19;4.40;;;4.10;;
19905;SDS011;10115;50.906;4.438;2022-11-20T15:41:46;12.23;;;4.57;;
19905;SDS011;10115;50.906;4.438;2022-11-20T15:44:12;5.63;;;3.50;;
19905;SDS011;10115;50.906;4.438;2022-11-20T15:46:39;3.97;;;3.77;;
19905;SDS011;10115;50.906;4.438;2022-11-20T15:49:12;4.47;;;4.13;;
19905;SDS011;10115;50.906;4.438;2022-11-20T15:51:49;4.00;;;3.03;;
19905;SDS011;10115;50.906;4.438;2022-11-20T15:54:19;3.23;;;3.03;;
19905;SDS011;10115;50.906;4.438;2022-11-20T15:56:49;4.97;;;4.57;;
19905;SDS011;10115;50.906;4.438;2022-11-20T15:59:17;3.00;;;2.87;;
19905;SDS011;10115;50.906;4.438;2022-11-20T16:01:43;4.47;;;4.17;;
19905;SDS011;10115;50.906;4.438;2022-11-20T16:04:12;2.67;;;2.57;;
19905;SDS011;10115;50.906;4.438;2022-11-20T16:06:39;3.63;;;3.43;;
19905;SDS011;10115;50.906;4.438;2022-11-20T16:09:05;4.33;;;3.73;;
19905;SDS011;10115;50.906;4.438;2022-11-20T16:11:32;3.73;;;3.53;;
19905;SDS011;10115;50.906;4.438;2022-11-20T16:13:58;5.63;;;3.60;;
19905;SDS011;10115;50.906;4.438;2022-11-20T16:16:42;3.63;;;3.43;;